Terminal Aerodrome Forecast
Issued by NWS

Home | Current Version | Previous Version | Text Only | Print | Product List | Glossary On
Versions: 1 2 3 4 5 6 7 8 9 10 11 12 13 14 15 16 17
000
FTUS44 KLZK 301100
TAFLIT
TAF
KLIT 301120Z 3012/3112 20006KT P6SM FEW150
     FM301900 22007KT P6SM VCSH BKN060
     FM310600 34008G16KT P6SM SKC=

USA.gov is the U.S. government's official web portal to all federal, state and local government web resources and services.